Αναφορές Αεροδρομίων

 

KSJC - San Jose, California, USA
Distance from station: ΒΑ 14km
Ενημερώθηκε: 07/05/2021 00:53
Μερικώς νεφελώδης
Μερικώς νεφελώδης
 Ανεμος από ΒΔ
Ανεμος: ΒΔ 30 km/h, Ριπή: 41 km/h
Θερμοκρασία: 21°C
Σημείο Δρόσου: 10°C
Υγρασία: 50%
Βαρόμετρο: 1017.9 hPa
Clouds: Μερικώς νεφελώδης
Visibility: 16 km
Cloud details: Few Clouds 3048 m
Μερικώς νεφελώδης 4877 m
2021/05/06 21:53 KSJC 062153Z 32016G22KT 10SM FEW100 SCT160 21/10 A3006 RMK AO2 SLP178 T02060100
KNUQ - Moffett Nas/Mtn, California, USA
Distance from station: Β 14km
Ενημερώθηκε: 14/04/2021 01:40
NOT Current

 
2021/04/13 22:40 KNUQ 132240Z AUTO RMK AO2 PNO PWINO TSNO
 
KPAO - Palo Alto, California, USA
Distance from station: ΒΒΔ 23km
Ενημερώθηκε: 07/05/2021 00:47
Αίθριος
Αίθριος
 Ανεμος από ΒΒΔ
Ανεμος: ΒΒΔ 26 km/h
Θερμοκρασία: 19°C
Σημείο Δρόσου: 12°C
Υγρασία: 64%
Βαρόμετρο: 1018.3 hPa
Clouds: Αίθριος
Visibility: 16 km
2021/05/06 21:47 KPAO 062147Z 33014KT 10SM SKC 19/12 A3007
KRHV - San Jose/Reid, California, USA
Distance from station: ΑΒΑ 19km
Ενημερώθηκε: 07/05/2021 00:47
Αίθριος
Αίθριος
 Ανεμος από ΒΔ
Ανεμος: ΒΔ 20 km/h
Θερμοκρασία: 23°C
Σημείο Δρόσου: 6°C
Υγρασία: 33%
Βαρόμετρο: 1017.6 hPa
Clouds: Αίθριος
Visibility: 16 km
2021/05/06 21:47 KRHV 062147Z 31011KT 10SM SKC 23/06 A3005
 
KOAK - Oakland, California, USA
Distance from station: ΒΒΔ 50km
Ενημερώθηκε: 07/05/2021 00:53
Μερικώς νεφελώδης
Μερικώς νεφελώδης
 Ανεμος από Δ
Ανεμος: Δ 28 km/h
Θερμοκρασία: 17°C
Σημείο Δρόσου: 10°C
Υγρασία: 64%
Βαρόμετρο: 1019 hPa
Clouds: Μερικώς νεφελώδης
Visibility: 16 km
Cloud details: Few Clouds 244 m
Few Clouds 366 m
Μερικώς νεφελώδης 6096 m
2021/05/06 21:53 KOAK 062153Z 27015KT 10SM FEW008 FEW012 SCT200 17/10 A3009 RMK AO2 SLP189 T01670100
KSQL - San Carlos Airpo, California, USA
Distance from station: ΒΔ 34km
Ενημερώθηκε: 07/05/2021 00:47
Μερικώς νεφελώδης
Μερικώς νεφελώδης
 Ανεμος από ΔΝΔ
Ανεμος: ΔΝΔ 20 km/h
Θερμοκρασία: 19°C
Σημείο Δρόσου: 9°C
Υγρασία: 52%
Βαρόμετρο: 1019 hPa
Clouds: Μερικώς νεφελώδης
Visibility: 16 km
Cloud details: Μερικώς νεφελώδης 6096 m
2021/05/06 21:47 KSQL 062147Z 25011KT 10SM SCT200 19/09 A3009
 
KSFO - San Francisco, California, USA
Distance from station: ΒΔ 49km
Ενημερώθηκε: 06/05/2021 23:56
Μερικώς νεφελώδης
Μερικώς νεφελώδης
 Ανεμος από Δ
Ανεμος: Δ 33 km/h, Ριπή: 46 km/h
Θερμοκρασία: 16°C
Σημείο Δρόσου: 9°C
Υγρασία: 63%
Βαρόμετρο: 1018.6 hPa
Clouds: Μερικώς νεφελώδης
Visibility: 16 km
Cloud details: Few Clouds 274 m
Μερικώς νεφελώδης 396 m
Μερικώς νεφελώδης 6096 m
2021/05/06 20:56 KSFO 062056Z 28018G25KT 10SM FEW009 SCT013 SCT200 16/09 A3008 RMK AO2 SLP186 T01610094 58002
KE16 - San Martin, California, USA
Distance from station: ΑΝΑ 43km
Ενημερώθηκε: 07/05/2021 00:35
Αίθριος
Αίθριος
 Ανεμος από ΒΔ
Ανεμος: ΒΔ 26 km/h, Ριπή: 43 km/h
Θερμοκρασία: 23°C
Σημείο Δρόσου: 5°C
Υγρασία: 31%
Βαρόμετρο: 1017.6 hPa
Clouds: Αίθριος
Visibility: 16 km
2021/05/06 21:35 KE16 062135Z AUTO 31014G23KT 10SM CLR 23/05 A3005 RMK AO2 PWINO PNO
 
KWVI - Watsonville, California, USA
Distance from station: ΝΝΑ 44km
Ενημερώθηκε: 07/05/2021 00:53
Αίθριος
Αίθριος
 Ανεμος από ΝΝΑ
Ανεμος: ΝΝΑ 13 km/h
Θερμοκρασία: 19°C
Σημείο Δρόσου: 11°C
Υγρασία: 60%
Βαρόμετρο: 1017.9 hPa
Clouds: Αίθριος
Visibility: 16 km
2021/05/06 21:53 KWVI 062153Z AUTO 16007KT 10SM CLR 19/11 A3006 RMK AO2 SLP179 T01940106
KHAF - Half Moon Bay, California, USA
Distance from station: ΔΒΔ 50km
Ενημερώθηκε: 07/05/2021 00:55
Mist, Συννεφιά
Mist, Συννεφιά
 Ανεμος από ΒΔ
Ανεμος: ΒΔ 26 km/h
Θερμοκρασία: 12°C
Σημείο Δρόσου: 10°C
Υγρασία: 88%
Βαρόμετρο: 1020.3 hPa
Περίληψη: Mist
Clouds: Συννεφιά
Visibility: 8 km
Cloud details: Συννεφιά 152 m
2021/05/06 21:55 KHAF 062155Z AUTO 32014KT 5SM BR OVC005 12/10 A3013 RMK AO2
 
KHWD - Hayward, California, USA
Distance from station: Β 44km
Ενημερώθηκε: 07/05/2021 00:54
Few Clouds
Few Clouds
 Ανεμος από Δ
Ανεμος: Δ 19 km/h
Θερμοκρασία: 17°C
Σημείο Δρόσου: 10°C
Υγρασία: 64%
Βαρόμετρο: 1019 hPa
Clouds: Few Clouds
Visibility: 16 km
Cloud details: Few Clouds 610 m
2021/05/06 21:54 KHWD 062154Z 27010KT 10SM FEW020 17/10 A3009 RMK AO2 SLP198 T01670100
KLVK - Livermore, California, USA
Distance from station: ΒΒΑ 51km
Ενημερώθηκε: 07/05/2021 00:53
Αίθριος
Αίθριος
 Ανεμος από ΔΒΔ
Ανεμος: ΔΒΔ 22 km/h
Θερμοκρασία: 24°C
Σημείο Δρόσου: 7°C
Υγρασία: 34%
Βαρόμετρο: 1016.9 hPa
Clouds: Αίθριος
Visibility: 16 km
2021/05/06 21:53 KLVK 062153Z 29012KT 10SM CLR 24/07 A3003 RMK AO2 SLP167 T02390067